Mountain Creek, Alabama
Current Conditions -  °F | °C
As of 6:15 PM on Wednesday 26 Nov 2014 (Local Time) from K1A9 Reporting Station
Clear Clear  
Wind Chill: 44°   Ceiling: Unl
Heat Index: 44°   Visibility: 10mi
Dew Point: 34°   Wind: 0mph
Humidity: 69%   Direction: NA
Pressure: 30.11"   Gusts: NA
Location:  32.6554°N, 86.5103°W
Report Text: K1A9 270015Z AUTO 00000KT 10SM CLR 07/01 A3011 RMK AO2 T00660012
Loading
Personal Weather Stations






























Interactive Weather Map New forecast layout! Learn more

10-Day Weather Forecast

Advertisements
Track Severe Weather on mobile